sensor_id;sensor_type;location;lat;lon;timestamp;temperature;humidity
68844;DHT22;55850;51.244;6.824;2022-10-31T00:03:31;16.04;81.25
68844;DHT22;55850;51.244;6.824;2022-10-31T00:08:37;16.08;81.24
68844;DHT22;55850;51.244;6.824;2022-10-31T00:13:45;15.94;81.48
68844;DHT22;55850;51.244;6.824;2022-10-31T00:18:51;15.71;82.24
68844;DHT22;55850;51.244;6.824;2022-10-31T00:23:57;15.72;82.25
68844;DHT22;55850;51.244;6.824;2022-10-31T00:29:06;15.78;81.94
68844;DHT22;55850;51.244;6.824;2022-10-31T00:34:11;15.77;81.83
68844;DHT22;55850;51.244;6.824;2022-10-31T00:39:17;15.84;81.64
68844;DHT22;55850;51.244;6.824;2022-10-31T00:44:26;15.67;81.90
68844;DHT22;55850;51.244;6.824;2022-10-31T00:49:31;15.80;81.40
68844;DHT22;55850;51.244;6.824;2022-10-31T00:54:36;15.72;81.68
68844;DHT22;55850;51.244;6.824;2022-10-31T00:59:45;15.75;81.71
68844;DHT22;55850;51.244;6.824;2022-10-31T01:04:50;15.87;81.00
68844;DHT22;55850;51.244;6.824;2022-10-31T01:09:55;15.81;81.02
68844;DHT22;55850;51.244;6.824;2022-10-31T01:15:06;15.64;81.72
68844;DHT22;55850;51.244;6.824;2022-10-31T01:20:13;15.49;82.04
68844;DHT22;55850;51.244;6.824;2022-10-31T01:25:18;15.37;82.37
68844;DHT22;55850;51.244;6.824;2022-10-31T01:30:26;15.30;82.56
68844;DHT22;55850;51.244;6.824;2022-10-31T01:35:31;15.16;83.08
68844;DHT22;55850;51.244;6.824;2022-10-31T01:40:37;15.26;82.76
68844;DHT22;55850;51.244;6.824;2022-10-31T01:45:51;15.29;82.74
68844;DHT22;55850;51.244;6.824;2022-10-31T01:50:58;15.19;82.95
68844;DHT22;55850;51.244;6.824;2022-10-31T01:56:04;15.14;83.11
68844;DHT22;55850;51.244;6.824;2022-10-31T02:01:16;15.33;82.53
68844;DHT22;55850;51.244;6.824;2022-10-31T02:06:28;15.33;82.52
68844;DHT22;55850;51.244;6.824;2022-10-31T02:11:36;15.12;82.98
68844;DHT22;55850;51.244;6.824;2022-10-31T02:16:46;15.09;83.08
68844;DHT22;55850;51.244;6.824;2022-10-31T02:21:54;15.27;82.46
68844;DHT22;55850;51.244;6.824;2022-10-31T02:27:11;15.26;82.35
68844;DHT22;55850;51.244;6.824;2022-10-31T02:32:26;14.98;83.16
68844;DHT22;55850;51.244;6.824;2022-10-31T02:37:37;14.86;83.46
68844;DHT22;55850;51.244;6.824;2022-10-31T02:42:50;15.18;82.54
68844;DHT22;55850;51.244;6.824;2022-10-31T02:48:00;15.02;82.94
68844;DHT22;55850;51.244;6.824;2022-10-31T02:53:06;15.20;82.63
68844;DHT22;55850;51.244;6.824;2022-10-31T02:58:14;15.40;81.92
68844;DHT22;55850;51.244;6.824;2022-10-31T03:03:52;15.13;83.03
68844;DHT22;55850;51.244;6.824;2022-10-31T03:09:05;15.13;83.17
68844;DHT22;55850;51.244;6.824;2022-10-31T03:14:19;15.18;82.89
68844;DHT22;55850;51.244;6.824;2022-10-31T03:19:37;15.18;82.70
68844;DHT22;55850;51.244;6.824;2022-10-31T03:24:47;15.09;83.10
68844;DHT22;55850;51.244;6.824;2022-10-31T03:29:57;15.06;83.22
68844;DHT22;55850;51.244;6.824;2022-10-31T03:35:13;14.92;83.46
68844;DHT22;55850;51.244;6.824;2022-10-31T03:40:21;15.04;83.04
68844;DHT22;55850;51.244;6.824;2022-10-31T03:45:29;15.00;83.19
68844;DHT22;55850;51.244;6.824;2022-10-31T03:50:41;14.96;83.30
68844;DHT22;55850;51.244;6.824;2022-10-31T03:55:49;15.00;83.19
68844;DHT22;55850;51.244;6.824;2022-10-31T04:00:56;14.92;83.35
68844;DHT22;55850;51.244;6.824;2022-10-31T04:06:08;14.92;83.29
68844;DHT22;55850;51.244;6.824;2022-10-31T04:11:16;14.93;83.21
68844;DHT22;55850;51.244;6.824;2022-10-31T04:16:41;14.79;83.49
68844;DHT22;55850;51.244;6.824;2022-10-31T04:21:50;14.79;83.42
68844;DHT22;55850;51.244;6.824;2022-10-31T04:26:55;14.82;83.50
68844;DHT22;55850;51.244;6.824;2022-10-31T04:32:03;14.82;83.50
68844;DHT22;55850;51.244;6.824;2022-10-31T04:37:11;14.83;83.16
68844;DHT22;55850;51.244;6.824;2022-10-31T04:42:16;14.57;84.10
68844;DHT22;55850;51.244;6.824;2022-10-31T04:47:22;14.58;84.03
68844;DHT22;55850;51.244;6.824;2022-10-31T04:52:30;14.60;83.96
68844;DHT22;55850;51.244;6.824;2022-10-31T04:57:40;14.62;83.87
68844;DHT22;55850;51.244;6.824;2022-10-31T05:02:47;14.85;83.14
68844;DHT22;55850;51.244;6.824;2022-10-31T05:07:56;14.76;83.39
68844;DHT22;55850;51.244;6.824;2022-10-31T05:13:04;14.57;84.02
68844;DHT22;55850;51.244;6.824;2022-10-31T05:18:28;14.62;83.96
68844;DHT22;55850;51.244;6.824;2022-10-31T05:23:39;14.54;84.03
68844;DHT22;55850;51.244;6.824;2022-10-31T05:28:50;14.73;83.58
68844;DHT22;55850;51.244;6.824;2022-10-31T05:33:55;14.73;83.47
68844;DHT22;55850;51.244;6.824;2022-10-31T05:39:22;14.71;83.53
68844;DHT22;55850;51.244;6.824;2022-10-31T05:44:33;14.57;83.93
68844;DHT22;55850;51.244;6.824;2022-10-31T05:50:01;14.57;84.10
68844;DHT22;55850;51.244;6.824;2022-10-31T05:55:36;14.55;84.01
68844;DHT22;55850;51.244;6.824;2022-10-31T06:00:48;14.48;84.24
68844;DHT22;55850;51.244;6.824;2022-10-31T06:05:56;14.49;83.88
68844;DHT22;55850;51.244;6.824;2022-10-31T06:11:12;14.42;84.10
68844;DHT22;55850;51.244;6.824;2022-10-31T06:16:41;14.45;84.09
68844;DHT22;55850;51.244;6.824;2022-10-31T06:22:09;14.20;84.80
68844;DHT22;55850;51.244;6.824;2022-10-31T06:27:17;14.17;84.77
68844;DHT22;55850;51.244;6.824;2022-10-31T06:32:23;14.14;84.91
68844;DHT22;55850;51.244;6.824;2022-10-31T06:37:29;14.28;84.64
68844;DHT22;55850;51.244;6.824;2022-10-31T06:42:43;14.18;84.66
68844;DHT22;55850;51.244;6.824;2022-10-31T06:47:50;14.23;84.86
68844;DHT22;55850;51.244;6.824;2022-10-31T06:53:36;14.18;84.79
68844;DHT22;55850;51.244;6.824;2022-10-31T06:58:46;14.34;84.42
68844;DHT22;55850;51.244;6.824;2022-10-31T07:03:59;14.45;84.23
68844;DHT22;55850;51.244;6.824;2022-10-31T07:09:08;14.48;84.32
68844;DHT22;55850;51.244;6.824;2022-10-31T07:14:16;14.55;84.20
68844;DHT22;55850;51.244;6.824;2022-10-31T07:19:22;14.62;84.10
68844;DHT22;55850;51.244;6.824;2022-10-31T07:24:28;14.68;83.98
68844;DHT22;55850;51.244;6.824;2022-10-31T07:29:56;14.65;84.13
68844;DHT22;55850;51.244;6.824;2022-10-31T07:35:02;14.78;83.56
68844;DHT22;55850;51.244;6.824;2022-10-31T07:40:18;14.62;84.20
68844;DHT22;55850;51.244;6.824;2022-10-31T07:45:26;14.82;83.87
68844;DHT22;55850;51.244;6.824;2022-10-31T07:51:04;14.93;83.63
68844;DHT22;55850;51.244;6.824;2022-10-31T07:56:38;15.10;82.84
68844;DHT22;55850;51.244;6.824;2022-10-31T08:01:46;15.07;82.92
68844;DHT22;55850;51.244;6.824;2022-10-31T08:07:12;15.49;82.01
68844;DHT22;55850;51.244;6.824;2022-10-31T08:12:23;15.51;81.99
68844;DHT22;55850;51.244;6.824;2022-10-31T08:17:37;15.18;83.06
68844;DHT22;55850;51.244;6.824;2022-10-31T08:22:53;15.50;82.02
68844;DHT22;55850;51.244;6.824;2022-10-31T08:27:58;15.61;82.06
68844;DHT22;55850;51.244;6.824;2022-10-31T08:33:10;15.92;81.46
68844;DHT22;55850;51.244;6.824;2022-10-31T08:38:34;16.11;80.84
68844;DHT22;55850;51.244;6.824;2022-10-31T08:43:43;16.22;79.73
68844;DHT22;55850;51.244;6.824;2022-10-31T08:48:53;15.97;80.23
68844;DHT22;55850;51.244;6.824;2022-10-31T08:53:59;16.06;80.08
68844;DHT22;55850;51.244;6.824;2022-10-31T08:59:08;16.04;80.28
68844;DHT22;55850;51.244;6.824;2022-10-31T09:04:35;16.29;79.75
68844;DHT22;55850;51.244;6.824;2022-10-31T09:09:41;16.42;79.51
68844;DHT22;55850;51.244;6.824;2022-10-31T09:14:47;16.32;79.60
68844;DHT22;55850;51.244;6.824;2022-10-31T09:20:12;16.21;79.20
68844;DHT22;55850;51.244;6.824;2022-10-31T09:25:18;16.39;79.36
68844;DHT22;55850;51.244;6.824;2022-10-31T09:30:39;16.56;79.14
68844;DHT22;55850;51.244;6.824;2022-10-31T09:35:48;16.63;79.24
68844;DHT22;55850;51.244;6.824;2022-10-31T09:40:56;16.56;79.12
68844;DHT22;55850;51.244;6.824;2022-10-31T09:46:08;17.03;77.79
68844;DHT22;55850;51.244;6.824;2022-10-31T09:51:28;17.18;78.01
68844;DHT22;55850;51.244;6.824;2022-10-31T09:56:56;17.24;77.80
68844;DHT22;55850;51.244;6.824;2022-10-31T10:02:04;17.27;77.61
68844;DHT22;55850;51.244;6.824;2022-10-31T10:07:21;17.31;77.75
68844;DHT22;55850;51.244;6.824;2022-10-31T10:13:10;17.69;76.75
68844;DHT22;55850;51.244;6.824;2022-10-31T10:18:26;17.82;76.35
68844;DHT22;55850;51.244;6.824;2022-10-31T10:23:48;18.01;75.79
68844;DHT22;55850;51.244;6.824;2022-10-31T10:29:00;17.70;75.70
68844;DHT22;55850;51.244;6.824;2022-10-31T10:34:11;17.63;76.41
68844;DHT22;55850;51.244;6.824;2022-10-31T10:39:25;17.68;76.02
68844;DHT22;55850;51.244;6.824;2022-10-31T10:44:33;17.66;76.20
68844;DHT22;55850;51.244;6.824;2022-10-31T10:49:52;17.58;76.32
68844;DHT22;55850;51.244;6.824;2022-10-31T10:55:09;17.82;75.92
68844;DHT22;55850;51.244;6.824;2022-10-31T11:00:21;17.89;76.11
68844;DHT22;55850;51.244;6.824;2022-10-31T11:05:35;18.03;75.90
68844;DHT22;55850;51.244;6.824;2022-10-31T11:10:43;18.24;75.49
68844;DHT22;55850;51.244;6.824;2022-10-31T11:15:54;18.38;75.40
68844;DHT22;55850;51.244;6.824;2022-10-31T11:21:02;18.43;75.19
68844;DHT22;55850;51.244;6.824;2022-10-31T11:26:19;18.59;74.80
68844;DHT22;55850;51.244;6.824;2022-10-31T11:31:26;18.62;74.85
68844;DHT22;55850;51.244;6.824;2022-10-31T11:36:37;18.72;74.71
68844;DHT22;55850;51.244;6.824;2022-10-31T11:41:46;18.75;74.07
68844;DHT22;55850;51.244;6.824;2022-10-31T11:46:53;18.78;73.91
68844;DHT22;55850;51.244;6.824;2022-10-31T11:52:04;18.84;73.72
68844;DHT22;55850;51.244;6.824;2022-10-31T11:57:26;19.09;73.12
68844;DHT22;55850;51.244;6.824;2022-10-31T12:02:32;19.13;72.89
68844;DHT22;55850;51.244;6.824;2022-10-31T12:07:37;19.20;72.65
68844;DHT22;55850;51.244;6.824;2022-10-31T12:13:05;19.16;71.55
68844;DHT22;55850;51.244;6.824;2022-10-31T12:18:34;19.22;70.88
68844;DHT22;55850;51.244;6.824;2022-10-31T12:23:52;19.27;69.94
68844;DHT22;55850;51.244;6.824;2022-10-31T12:29:17;19.43;69.31
68844;DHT22;55850;51.244;6.824;2022-10-31T12:34:37;19.44;69.30
68844;DHT22;55850;51.244;6.824;2022-10-31T13:19:39;19.67;66.85
68844;DHT22;55850;51.244;6.824;2022-10-31T13:24:53;19.67;66.70
68844;DHT22;55850;51.244;6.824;2022-10-31T13:30:02;19.68;66.38
68844;DHT22;55850;51.244;6.824;2022-10-31T13:35:16;19.64;66.48
68844;DHT22;55850;51.244;6.824;2022-10-31T13:40:33;19.64;66.72
68844;DHT22;55850;51.244;6.824;2022-10-31T13:45:48;19.61;66.68
68844;DHT22;55850;51.244;6.824;2022-10-31T13:50:59;19.68;66.95
68844;DHT22;55850;51.244;6.824;2022-10-31T13:56:17;19.71;66.66
68844;DHT22;55850;51.244;6.824;2022-10-31T14:01:23;19.65;66.96
68844;DHT22;55850;51.244;6.824;2022-10-31T14:06:40;19.60;67.31
68844;DHT22;55850;51.244;6.824;2022-10-31T14:11:48;19.49;67.78
68844;DHT22;55850;51.244;6.824;2022-10-31T14:16:56;19.51;67.70
68844;DHT22;55850;51.244;6.824;2022-10-31T14:22:19;19.58;67.54
68844;DHT22;55850;51.244;6.824;2022-10-31T14:27:44;19.51;67.87
68844;DHT22;55850;51.244;6.824;2022-10-31T14:32:52;19.55;67.97
68844;DHT22;55850;51.244;6.824;2022-10-31T14:38:15;19.43;68.20
68844;DHT22;55850;51.244;6.824;2022-10-31T14:43:35;19.40;68.10
68844;DHT22;55850;51.244;6.824;2022-10-31T14:49:01;19.49;68.13
68844;DHT22;55850;51.244;6.824;2022-10-31T14:54:15;19.54;67.78
68844;DHT22;55850;51.244;6.824;2022-10-31T14:59:24;19.46;68.11
68844;DHT22;55850;51.244;6.824;2022-10-31T15:04:31;19.44;67.66
68844;DHT22;55850;51.244;6.824;2022-10-31T15:09:40;19.43;67.30
68844;DHT22;55850;51.244;6.824;2022-10-31T15:14:46;19.38;67.34
68844;DHT22;55850;51.244;6.824;2022-10-31T15:19:52;19.34;67.31
68844;DHT22;55850;51.244;6.824;2022-10-31T15:25:02;19.27;66.85
68844;DHT22;55850;51.244;6.824;2022-10-31T15:30:17;19.36;66.45
68844;DHT22;55850;51.244;6.824;2022-10-31T15:35:26;19.28;65.87
68844;DHT22;55850;51.244;6.824;2022-10-31T15:40:34;19.31;65.28
68844;DHT22;55850;51.244;6.824;2022-10-31T15:45:42;19.34;65.10
68844;DHT22;55850;51.244;6.824;2022-10-31T15:50:49;19.27;64.95
68844;DHT22;55850;51.244;6.824;2022-10-31T15:56:00;19.19;64.94
68844;DHT22;55850;51.244;6.824;2022-10-31T16:01:20;19.13;65.06
68844;DHT22;55850;51.244;6.824;2022-10-31T16:06:26;19.05;64.77
68844;DHT22;55850;51.244;6.824;2022-10-31T16:11:37;19.12;64.61
68844;DHT22;55850;51.244;6.824;2022-10-31T16:16:45;19.13;64.39
68844;DHT22;55850;51.244;6.824;2022-10-31T16:21:53;18.95;64.65
68844;DHT22;55850;51.244;6.824;2022-10-31T16:27:04;18.91;65.02
68844;DHT22;55850;51.244;6.824;2022-10-31T16:32:29;18.84;65.47
68844;DHT22;55850;51.244;6.824;2022-10-31T16:37:37;18.86;64.77
68844;DHT22;55850;51.244;6.824;2022-10-31T16:42:45;18.79;64.97
68844;DHT22;55850;51.244;6.824;2022-10-31T16:47:52;18.71;65.10
68844;DHT22;55850;51.244;6.824;2022-10-31T16:52:57;18.69;64.99
68844;DHT22;55850;51.244;6.824;2022-10-31T16:58:22;18.65;64.99
68844;DHT22;55850;51.244;6.824;2022-10-31T17:03:28;18.62;64.88
68844;DHT22;55850;51.244;6.824;2022-10-31T17:08:33;18.65;64.72
68844;DHT22;55850;51.244;6.824;2022-10-31T17:13:41;18.54;64.80
68844;DHT22;55850;51.244;6.824;2022-10-31T17:18:46;18.51;65.10
68844;DHT22;55850;51.244;6.824;2022-10-31T17:23:52;18.52;64.66
68844;DHT22;55850;51.244;6.824;2022-10-31T17:29:00;18.41;65.07
68844;DHT22;55850;51.244;6.824;2022-10-31T17:34:06;18.36;65.19
68844;DHT22;55850;51.244;6.824;2022-10-31T17:39:12;18.30;65.53
68844;DHT22;55850;51.244;6.824;2022-10-31T17:44:20;18.34;65.44
68844;DHT22;55850;51.244;6.824;2022-10-31T17:49:26;18.26;65.55
68844;DHT22;55850;51.244;6.824;2022-10-31T17:54:31;18.24;65.33
68844;DHT22;55850;51.244;6.824;2022-10-31T17:59:39;18.16;65.64
68844;DHT22;55850;51.244;6.824;2022-10-31T18:04:44;18.06;65.94
68844;DHT22;55850;51.244;6.824;2022-10-31T18:09:50;17.94;66.31
68844;DHT22;55850;51.244;6.824;2022-10-31T18:14:58;17.90;66.43
68844;DHT22;55850;51.244;6.824;2022-10-31T18:20:05;17.73;67.22
68844;DHT22;55850;51.244;6.824;2022-10-31T18:25:12;17.65;68.04
68844;DHT22;55850;51.244;6.824;2022-10-31T18:30:20;17.73;68.81
68844;DHT22;55850;51.244;6.824;2022-10-31T18:35:25;17.77;68.37
68844;DHT22;55850;51.244;6.824;2022-10-31T18:40:31;17.69;67.66
68844;DHT22;55850;51.244;6.824;2022-10-31T18:45:40;17.62;69.52
68844;DHT22;55850;51.244;6.824;2022-10-31T18:50:52;17.65;68.61
68844;DHT22;55850;51.244;6.824;2022-10-31T18:56:00;17.56;69.40
68844;DHT22;55850;51.244;6.824;2022-10-31T19:01:09;17.55;69.01
68844;DHT22;55850;51.244;6.824;2022-10-31T19:06:15;17.38;69.22
68844;DHT22;55850;51.244;6.824;2022-10-31T19:11:21;17.31;69.43
68844;DHT22;55850;51.244;6.824;2022-10-31T19:16:29;17.22;69.49
68844;DHT22;55850;51.244;6.824;2022-10-31T19:21:34;17.07;70.13
68844;DHT22;55850;51.244;6.824;2022-10-31T19:26:40;16.98;70.36
68844;DHT22;55850;51.244;6.824;2022-10-31T19:31:48;17.00;70.26
68844;DHT22;55850;51.244;6.824;2022-10-31T19:36:53;17.00;69.88
68844;DHT22;55850;51.244;6.824;2022-10-31T19:41:58;16.84;70.64
68844;DHT22;55850;51.244;6.824;2022-10-31T19:47:07;16.84;70.40
68844;DHT22;55850;51.244;6.824;2022-10-31T19:52:13;16.92;70.25
68844;DHT22;55850;51.244;6.824;2022-10-31T19:57:18;16.83;70.62
68844;DHT22;55850;51.244;6.824;2022-10-31T20:02:47;16.83;70.72
68844;DHT22;55850;51.244;6.824;2022-10-31T20:07:53;16.84;70.77
68844;DHT22;55850;51.244;6.824;2022-10-31T20:12:59;16.81;71.02
68844;DHT22;55850;51.244;6.824;2022-10-31T20:18:08;16.84;70.79
68844;DHT22;55850;51.244;6.824;2022-10-31T20:23:13;16.92;70.73
68844;DHT22;55850;51.244;6.824;2022-10-31T20:28:19;16.92;70.70
68844;DHT22;55850;51.244;6.824;2022-10-31T20:33:27;16.90;70.96
68844;DHT22;55850;51.244;6.824;2022-10-31T20:38:33;16.95;70.86
68844;DHT22;55850;51.244;6.824;2022-10-31T20:43:38;16.94;70.78
68844;DHT22;55850;51.244;6.824;2022-10-31T20:48:47;16.95;70.59
68844;DHT22;55850;51.244;6.824;2022-10-31T20:53:53;17.07;70.13
68844;DHT22;55850;51.244;6.824;2022-10-31T20:58:59;17.10;69.97
68844;DHT22;55850;51.244;6.824;2022-10-31T21:04:07;17.14;69.71
68844;DHT22;55850;51.244;6.824;2022-10-31T21:09:13;17.21;69.37
68844;DHT22;55850;51.244;6.824;2022-10-31T21:14:19;17.25;69.12
68844;DHT22;55850;51.244;6.824;2022-10-31T21:19:27;17.24;69.16
68844;DHT22;55850;51.244;6.824;2022-10-31T21:24:32;17.28;68.94
68844;DHT22;55850;51.244;6.824;2022-10-31T21:29:39;17.32;68.92
68844;DHT22;55850;51.244;6.824;2022-10-31T21:34:50;17.32;68.90
68844;DHT22;55850;51.244;6.824;2022-10-31T21:39:55;17.31;69.01
68844;DHT22;55850;51.244;6.824;2022-10-31T21:45:00;17.17;69.32
68844;DHT22;55850;51.244;6.824;2022-10-31T21:50:09;17.28;69.03
68844;DHT22;55850;51.244;6.824;2022-10-31T21:55:15;17.19;69.23
68844;DHT22;55850;51.244;6.824;2022-10-31T22:00:22;17.18;69.37
68844;DHT22;55850;51.244;6.824;2022-10-31T22:05:32;17.18;69.46
68844;DHT22;55850;51.244;6.824;2022-10-31T22:10:38;17.14;69.53
68844;DHT22;55850;51.244;6.824;2022-10-31T22:15:43;17.17;69.69
68844;DHT22;55850;51.244;6.824;2022-10-31T22:20:51;17.14;69.81
68844;DHT22;55850;51.244;6.824;2022-10-31T22:26:01;17.08;69.82
68844;DHT22;55850;51.244;6.824;2022-10-31T22:31:07;17.08;69.98
68844;DHT22;55850;51.244;6.824;2022-10-31T22:36:36;17.07;69.99
68844;DHT22;55850;51.244;6.824;2022-10-31T22:41:41;17.07;70.21
68844;DHT22;55850;51.244;6.824;2022-10-31T22:46:47;17.07;70.11
68844;DHT22;55850;51.244;6.824;2022-10-31T22:51:55;17.15;69.97
68844;DHT22;55850;51.244;6.824;2022-10-31T22:57:05;17.07;70.26
68844;DHT22;55850;51.244;6.824;2022-10-31T23:02:10;17.08;70.28
68844;DHT22;55850;51.244;6.824;2022-10-31T23:07:19;17.00;70.71
68844;DHT22;55850;51.244;6.824;2022-10-31T23:12:25;17.01;70.51
68844;DHT22;55850;51.244;6.824;2022-10-31T23:17:45;17.10;70.29
68844;DHT22;55850;51.244;6.824;2022-10-31T23:22:54;17.10;70.48
68844;DHT22;55850;51.244;6.824;2022-10-31T23:28:00;17.12;70.54
68844;DHT22;55850;51.244;6.824;2022-10-31T23:33:05;17.06;70.73
68844;DHT22;55850;51.244;6.824;2022-10-31T23:38:13;17.00;71.15
68844;DHT22;55850;51.244;6.824;2022-10-31T23:43:19;17.06;71.49
68844;DHT22;55850;51.244;6.824;2022-10-31T23:48:24;17.06;72.43
68844;DHT22;55850;51.244;6.824;2022-10-31T23:53:32;16.84;73.91
68844;DHT22;55850;51.244;6.824;2022-10-31T23:58:57;16.79;74.54
